Time;durP1;ratioP1;P1;durP2;ratioP2;P2;SDS_P1;SDS_P2;PMS_P1;PMS_P2;Temp;Humidity;BMP_temperature;BMP_pressure;BME280_temperature;BME280_humidity;BME280_pressure;Samples;Min_cycle;Max_cycle;Signal;HPM_P1;HPM_P2
2023/07/26 00:01:48;;;;;;;4.82;1.33;;;15.80;96.50;;;;;;5090330;28;20032;-68
2023/07/26 00:04:14;;;;;;;5.55;1.40;;;15.60;96.90;;;;;;5091627;28;20051;-66
2023/07/26 00:06:40;;;;;;;7.82;1.70;;;15.50;97.00;;;;;;5092019;28;20032;-68
2023/07/26 00:09:08;;;;;;;2.83;1.52;;;15.40;97.30;;;;;;5090919;28;20028;-68
2023/07/26 00:11:35;;;;;;;4.25;1.52;;;15.40;97.40;;;;;;5092483;28;20040;-68
2023/07/26 00:14:01;;;;;;;3.33;1.35;;;15.50;97.30;;;;;;5090635;28;20028;-68
2023/07/26 00:16:27;;;;;;;4.55;1.35;;;15.50;97.30;;;;;;5091761;28;20458;-67
2023/07/26 00:18:53;;;;;;;3.88;1.40;;;15.50;97.20;;;;;;5091186;28;20028;-68
2023/07/26 00:21:18;;;;;;;4.50;1.50;;;15.50;97.30;;;;;;5092244;28;20024;-69
2023/07/26 00:23:44;;;;;;;7.55;1.98;;;15.50;97.20;;;;;;5092304;28;20024;-67
2023/07/26 00:26:10;;;;;;;2.95;1.40;;;15.50;97.40;;;;;;5091315;28;20050;-67
2023/07/26 00:28:35;;;;;;;2.85;1.40;;;15.50;97.40;;;;;;5091837;28;20040;-68
2023/07/26 00:31:01;;;;;;;7.72;1.60;;;15.50;97.50;;;;;;5090748;28;20024;-67
2023/07/26 00:33:26;;;;;;;4.10;1.50;;;15.50;97.40;;;;;;5091269;28;20110;-67
2023/07/26 00:35:52;;;;;;;5.43;2.08;;;15.40;97.40;;;;;;5091699;28;20312;-67
2023/07/26 00:38:18;;;;;;;6.75;1.55;;;15.30;97.60;;;;;;5091790;28;20035;-67
2023/07/26 00:40:43;;;;;;;3.65;1.08;;;15.30;97.70;;;;;;5090265;28;20028;-68
2023/07/26 00:43:09;;;;;;;5.45;1.38;;;15.20;98.10;;;;;;5091444;28;20059;-68
2023/07/26 00:45:38;;;;;;;3.72;1.42;;;15.10;98.00;;;;;;5091462;28;20040;-68
2023/07/26 00:48:04;;;;;;;4.55;1.10;;;15.20;98.00;;;;;;5091712;28;20370;-67
2023/07/26 00:50:29;;;;;;;7.57;1.70;;;15.20;98.00;;;;;;5091543;28;20051;-68
2023/07/26 00:52:55;;;;;;;4.07;1.70;;;15.30;97.90;;;;;;5091321;28;20067;-68
2023/07/26 00:55:21;;;;;;;3.95;1.65;;;15.30;97.90;;;;;;5090005;28;20110;-68
2023/07/26 00:57:47;;;;;;;5.22;1.17;;;15.40;97.90;;;;;;5090868;28;20359;-67
2023/07/26 01:00:13;;;;;;;4.88;1.77;;;15.40;97.70;;;;;;5090888;28;20101;-68
2023/07/26 01:02:39;;;;;;;4.30;1.25;;;15.30;97.90;;;;;;5090147;28;20054;-69
2023/07/26 01:05:06;;;;;;;6.30;1.30;;;15.30;97.90;;;;;;5091088;28;20239;-68
2023/07/26 01:08:03;;;;;;;5.18;1.42;;;15.30;97.90;;;;;;5090922;28;20039;-68
2023/07/26 01:10:46;;;;;;;3.20;1.20;;;15.30;97.90;;;;;;5090748;28;20107;-67
2023/07/26 01:13:33;;;;;;;3.03;1.20;;;15.30;98.30;;;;;;5090557;28;20094;-67
2023/07/26 01:16:00;;;;;;;2.38;1.40;;;15.20;98.10;;;;;;5090641;28;20024;-67
2023/07/26 01:18:25;;;;;;;2.78;1.20;;;15.20;98.10;;;;;;5090872;28;20032;-67
2023/07/26 01:20:51;;;;;;;8.10;1.50;;;15.20;98.20;;;;;;5090708;28;20055;-68
2023/07/26 01:23:16;;;;;;;3.95;1.35;;;15.20;98.30;;;;;;5090072;28;20110;-68
2023/07/26 01:25:42;;;;;;;3.90;1.58;;;15.20;98.30;;;;;;5090580;28;20417;-68
2023/07/26 01:28:08;;;;;;;5.88;1.73;;;15.00;98.30;;;;;;5090567;28;20454;-67
2023/07/26 01:30:34;;;;;;;2.85;1.20;;;15.00;98.40;;;;;;5090510;28;20027;-68
2023/07/26 01:33:04;;;;;;;4.60;1.35;;;14.90;98.60;;;;;;5090202;28;20047;-67
2023/07/26 01:35:30;;;;;;;7.55;1.65;;;14.80;98.80;;;;;;5084886;28;20021;-69
2023/07/26 01:37:56;;;;;;;2.65;1.13;;;14.80;98.80;;;;;;5070385;28;20048;-68
2023/07/26 01:40:23;;;;;;;5.97;1.58;;;14.80;98.80;;;;;;5070456;28;20039;-69
2023/07/26 01:42:49;;;;;;;2.63;1.17;;;14.80;98.80;;;;;;5070302;28;20052;-68
2023/07/26 01:45:15;;;;;;;2.40;1.40;;;14.80;99.00;;;;;;5070450;28;20108;-68
2023/07/26 01:47:41;;;;;;;3.35;1.58;;;14.90;98.90;;;;;;5070592;28;20055;-67
2023/07/26 01:50:08;;;;;;;3.00;1.50;;;14.90;98.80;;;;;;5070187;28;20032;-68
2023/07/26 01:52:33;;;;;;;5.38;1.25;;;14.90;98.70;;;;;;5069145;28;20033;-67
2023/07/26 01:54:59;;;;;;;2.92;1.42;;;14.90;98.80;;;;;;5069863;28;20417;-68
2023/07/26 01:57:25;;;;;;;6.57;1.33;;;14.80;98.90;;;;;;5070081;28;20037;-67
2023/07/26 01:59:52;;;;;;;4.13;1.70;;;14.80;99.00;;;;;;5070059;28;20493;-66
2023/07/26 02:02:18;;;;;;;7.20;1.38;;;14.80;99.00;;;;;;5070485;28;20025;-69
2023/07/26 02:04:44;;;;;;;2.25;1.33;;;15.00;98.90;;;;;;5070211;28;20086;-67
2023/07/26 02:07:10;;;;;;;3.30;1.33;;;14.90;98.80;;;;;;5070165;28;20055;-68
2023/07/26 02:09:36;;;;;;;3.58;1.40;;;14.90;98.80;;;;;;5069040;28;20029;-68
2023/07/26 02:12:02;;;;;;;4.00;1.25;;;14.90;98.90;;;;;;5069864;28;20021;-69
2023/07/26 02:14:28;;;;;;;5.80;1.50;;;14.90;98.90;;;;;;5069542;28;20020;-70
2023/07/26 02:16:53;;;;;;;3.60;1.42;;;15.00;98.90;;;;;;5069999;28;20034;-68
2023/07/26 02:19:19;;;;;;;3.90;1.48;;;14.90;98.60;;;;;;5068799;28;20028;-67
2023/07/26 02:21:45;;;;;;;3.08;1.45;;;14.90;98.80;;;;;;5070029;28;20123;-68
2023/07/26 02:24:10;;;;;;;11.45;1.95;;;14.90;98.90;;;;;;5069886;28;20028;-68
2023/07/26 02:26:36;;;;;;;4.40;1.38;;;14.90;98.90;;;;;;5071411;28;20366;-68
2023/07/26 02:29:02;;;;;;;5.80;1.63;;;15.00;98.90;;;;;;5072803;28;20041;-68
2023/07/26 02:31:27;;;;;;;4.30;1.33;;;14.90;98.90;;;;;;5073455;28;20033;-67
2023/07/26 02:33:53;;;;;;;6.25;1.85;;;14.90;98.90;;;;;;5073533;28;20032;-67
2023/07/26 02:36:18;;;;;;;4.80;1.38;;;14.90;99.00;;;;;;5073403;28;20032;-67
2023/07/26 02:38:44;;;;;;;4.35;1.42;;;14.90;99.10;;;;;;5073808;28;20032;-68
2023/07/26 02:41:09;;;;;;;3.50;1.20;;;14.90;99.00;;;;;;5073390;28;20036;-67
2023/07/26 02:43:35;;;;;;;8.27;1.58;;;14.90;99.10;;;;;;5073322;28;20098;-68
2023/07/26 02:46:01;;;;;;;4.38;1.40;;;14.90;98.90;;;;;;5073459;28;20078;-67
2023/07/26 02:48:27;;;;;;;3.22;1.75;;;14.80;99.00;;;;;;5073397;28;20033;-69
2023/07/26 02:50:53;;;;;;;5.47;1.58;;;14.80;99.00;;;;;;5073150;28;20017;-67
2023/07/26 02:53:18;;;;;;;6.72;1.92;;;14.80;99.10;;;;;;5073588;28;20164;-67
2023/07/26 02:55:44;;;;;;;5.72;1.83;;;14.80;99.20;;;;;;5073189;28;20028;-69
2023/07/26 02:58:10;;;;;;;3.75;1.55;;;14.90;99.10;;;;;;5073026;28;20040;-69
2023/07/26 03:00:36;;;;;;;5.60;1.80;;;14.90;99.00;;;;;;5072243;28;20047;-67
2023/07/26 03:03:02;;;;;;;6.75;1.73;;;14.90;99.20;;;;;;5073006;28;20521;-66
2023/07/26 03:05:28;;;;;;;6.18;1.60;;;14.90;99.10;;;;;;5073563;28;20048;-68
2023/07/26 03:07:54;;;;;;;3.85;1.33;;;14.90;99.10;;;;;;5073273;28;20458;-67
2023/07/26 03:10:19;;;;;;;6.47;1.30;;;14.90;98.90;;;;;;5072777;28;20035;-68
2023/07/26 03:12:45;;;;;;;5.15;1.52;;;14.90;99.00;;;;;;5072881;28;20506;-68
2023/07/26 03:15:11;;;;;;;6.38;1.60;;;14.90;99.00;;;;;;5072761;28;20502;-68
2023/07/26 03:17:37;;;;;;;4.13;1.45;;;14.90;99.00;;;;;;5072945;28;20035;-68
2023/07/26 03:20:03;;;;;;;2.42;1.35;;;14.90;98.90;;;;;;5072841;28;20363;-69
2023/07/26 03:22:29;;;;;;;4.45;1.58;;;14.90;99.00;;;;;;5071575;28;20085;-67
2023/07/26 03:24:54;;;;;;;7.07;1.95;;;14.90;99.00;;;;;;5072692;28;20020;-68
2023/07/26 03:27:20;;;;;;;8.80;1.63;;;14.90;99.00;;;;;;5072416;28;20502;-68
2023/07/26 03:29:46;;;;;;;3.22;1.38;;;14.90;99.10;;;;;;5072875;28;20040;-68
2023/07/26 03:32:12;;;;;;;5.10;1.67;;;14.90;99.00;;;;;;5072201;28;20049;-69
2023/07/26 03:34:37;;;;;;;7.68;1.85;;;14.90;99.10;;;;;;5071127;28;20116;-67
2023/07/26 03:37:03;;;;;;;5.72;1.80;;;14.80;99.10;;;;;;5072021;28;20187;-68
2023/07/26 03:39:29;;;;;;;3.75;1.52;;;14.80;99.20;;;;;;5072457;28;20024;-67
2023/07/26 03:41:54;;;;;;;7.45;1.98;;;14.80;99.20;;;;;;5072551;28;20107;-69
2023/07/26 03:44:20;;;;;;;5.43;2.03;;;14.80;99.20;;;;;;5072587;28;20347;-68
2023/07/26 03:46:46;;;;;;;3.75;1.65;;;14.80;99.10;;;;;;5072144;28;20025;-67
2023/07/26 03:49:12;;;;;;;4.78;1.50;;;14.90;99.00;;;;;;5071058;28;20191;-68
2023/07/26 03:51:37;;;;;;;3.15;1.55;;;14.80;99.10;;;;;;5072067;28;20044;-67
2023/07/26 03:54:03;;;;;;;3.90;1.23;;;14.80;99.20;;;;;;5072068;28;20133;-68
2023/07/26 03:56:29;;;;;;;6.43;1.90;;;14.90;98.90;;;;;;5072360;28;20090;-69
2023/07/26 03:58:54;;;;;;;5.82;2.83;;;14.90;98.90;;;;;;5071794;28;20116;-68
2023/07/26 04:01:20;;;;;;;13.43;2.35;;;14.80;99.00;;;;;;5071722;28;20056;-68
2023/07/26 04:03:46;;;;;;;5.72;2.22;;;14.70;99.10;;;;;;5071743;28;20106;-69
2023/07/26 04:06:12;;;;;;;6.68;1.90;;;14.80;99.20;;;;;;5071667;28;20063;-69
2023/07/26 04:08:39;;;;;;;6.78;1.48;;;14.80;99.10;;;;;;5071200;28;20032;-68
2023/07/26 04:11:06;;;;;;;3.70;1.90;;;14.90;99.00;;;;;;5071892;28;20116;-67
2023/07/26 04:13:32;;;;;;;4.70;1.80;;;14.80;99.10;;;;;;5071878;28;20094;-68
2023/07/26 04:15:58;;;;;;;5.18;2.25;;;14.80;99.20;;;;;;5071736;28;20394;-70
2023/07/26 04:18:24;;;;;;;6.75;2.00;;;14.80;99.20;;;;;;5070190;28;20033;-68
2023/07/26 04:20:50;;;;;;;4.53;1.88;;;14.90;99.10;;;;;;5071847;28;20028;-68
2023/07/26 04:23:15;;;;;;;7.47;2.10;;;14.90;99.00;;;;;;5070769;28;20048;-68
2023/07/26 04:25:41;;;;;;;4.88;1.77;;;15.00;99.10;;;;;;5070717;28;20064;-68
2023/07/26 04:28:06;;;;;;;6.25;2.10;;;15.00;99.20;;;;;;5071394;28;20419;-68
2023/07/26 04:30:35;;;;;;;4.45;1.73;;;14.90;99.20;;;;;;5071196;28;20047;-67
2023/07/26 04:33:00;;;;;;;2.55;1.65;;;15.00;99.10;;;;;;5070770;28;20044;-66
2023/07/26 04:35:26;;;;;;;4.90;1.95;;;15.00;99.00;;;;;;5071680;28;20028;-67
2023/07/26 04:37:52;;;;;;;4.05;1.80;;;15.00;99.00;;;;;;5071098;28;20060;-67
2023/07/26 04:40:18;;;;;;;4.43;1.80;;;15.00;99.10;;;;;;5071104;28;20097;-67
2023/07/26 04:42:43;;;;;;;4.43;1.83;;;15.10;99.10;;;;;;5071048;28;20490;-67
2023/07/26 04:45:09;;;;;;;8.30;2.30;;;15.10;99.10;;;;;;5069935;28;20033;-68
2023/07/26 04:47:35;;;;;;;7.55;1.75;;;15.10;99.20;;;;;;5071651;28;20472;-69
2023/07/26 04:50:00;;;;;;;4.20;2.75;;;15.20;99.10;;;;;;5070604;28;20422;-68
2023/07/26 04:52:26;;;;;;;6.25;2.03;;;15.20;99.10;;;;;;5070953;28;20482;-69
2023/07/26 04:54:56;;;;;;;4.45;1.80;;;15.30;99.10;;;;;;5070592;28;20171;-68
2023/07/26 04:57:21;;;;;;;6.30;2.20;;;15.20;99.30;;;;;;5070509;28;20127;-68
2023/07/26 04:59:47;;;;;;;9.55;2.38;;;15.30;99.10;;;;;;5070198;28;20171;-68
2023/07/26 05:02:12;;;;;;;6.80;2.00;;;15.20;99.20;;;;;;5069429;28;20051;-69
2023/07/26 05:04:38;;;;;;;3.95;1.65;;;15.30;99.20;;;;;;5070606;28;20111;-67
2023/07/26 05:07:04;;;;;;;8.65;2.50;;;15.30;99.30;;;;;;5070584;28;20037;-69
2023/07/26 05:09:30;;;;;;;9.93;2.08;;;15.20;99.30;;;;;;5070240;28;20055;-67
2023/07/26 05:11:55;;;;;;;4.97;2.10;;;15.30;99.20;;;;;;5070502;28;20056;-68
2023/07/26 05:14:21;;;;;;;8.30;1.80;;;15.40;99.20;;;;;;5071102;28;20463;-69
2023/07/26 05:16:47;;;;;;;7.50;2.13;;;15.40;99.20;;;;;;5070353;28;20174;-67
2023/07/26 05:19:12;;;;;;;6.93;2.22;;;15.40;99.20;;;;;;5069149;28;20028;-69
2023/07/26 05:21:39;;;;;;;7.78;2.55;;;15.40;99.10;;;;;;5070283;28;20032;-68
2023/07/26 05:24:04;;;;;;;5.60;2.30;;;15.40;99.20;;;;;;5069254;28;20040;-69
2023/07/26 05:26:30;;;;;;;7.80;2.08;;;15.40;99.20;;;;;;5070102;28;20020;-68
2023/07/26 05:28:56;;;;;;;9.25;2.50;;;15.50;99.20;;;;;;5070231;28;20033;-68
2023/07/26 05:31:21;;;;;;;4.38;1.98;;;15.50;99.30;;;;;;5070144;28;20178;-68
2023/07/26 05:33:47;;;;;;;7.80;1.90;;;15.50;99.20;;;;;;5069023;28;20052;-68
2023/07/26 05:36:12;;;;;;;10.80;2.28;;;15.50;99.40;;;;;;5070138;28;20024;-68
2023/07/26 05:38:38;;;;;;;3.50;2.03;;;15.60;99.20;;;;;;5070445;28;20024;-68
2023/07/26 05:41:05;;;;;;;6.20;2.40;;;15.50;99.30;;;;;;5070224;28;20459;-68
2023/07/26 05:43:31;;;;;;;4.43;2.08;;;15.60;99.30;;;;;;5069922;28;20482;-67
2023/07/26 05:45:56;;;;;;;9.02;2.40;;;15.60;99.40;;;;;;5069892;28;20036;-68
2023/07/26 05:48:22;;;;;;;3.80;1.92;;;15.70;99.30;;;;;;5069766;28;20094;-68
2023/07/26 05:50:48;;;;;;;6.97;2.25;;;15.70;99.20;;;;;;5070703;28;20024;-67
2023/07/26 05:53:14;;;;;;;5.38;1.98;;;15.80;99.20;;;;;;5070207;28;20119;-68
2023/07/26 05:55:39;;;;;;;6.35;2.33;;;15.80;99.20;;;;;;5069988;28;20028;-68
2023/07/26 05:58:05;;;;;;;7.68;2.17;;;15.80;99.20;;;;;;5069917;28;20036;-68
2023/07/26 06:00:31;;;;;;;4.47;2.28;;;15.90;99.10;;;;;;5072002;28;20032;-68
2023/07/26 06:02:57;;;;;;;3.78;2.08;;;16.00;99.00;;;;;;5074099;28;20044;-68
2023/07/26 06:05:23;;;;;;;5.82;2.67;;;16.00;99.00;;;;;;5073215;28;20033;-68
2023/07/26 06:07:50;;;;;;;9.77;2.20;;;16.00;99.00;;;;;;5073685;28;20029;-67
2023/07/26 06:10:16;;;;;;;8.83;2.10;;;16.00;98.90;;;;;;5073924;28;20124;-67
2023/07/26 06:12:41;;;;;;;4.93;1.90;;;16.00;99.30;;;;;;5073807;28;20123;-68
2023/07/26 06:15:08;;;;;;;7.47;1.75;;;16.00;99.10;;;;;;5073440;28;20021;-67
2023/07/26 06:17:33;;;;;;;6.82;2.08;;;16.10;99.10;;;;;;5072643;28;20119;-67
2023/07/26 06:19:59;;;;;;;12.80;2.08;;;16.10;99.00;;;;;;5073802;28;20112;-68
2023/07/26 06:22:25;;;;;;;6.20;1.83;;;16.10;99.00;;;;;;5073487;28;20111;-68
2023/07/26 06:24:51;;;;;;;7.55;2.17;;;16.30;98.90;;;;;;5073475;28;20132;-68
2023/07/26 06:27:27;;;;;;;3.40;1.75;;;16.30;98.80;;;;;;5073331;28;20336;-67
2023/07/26 06:29:52;;;;;;;9.70;2.28;;;16.40;98.70;;;;;;5073191;28;20361;-68
2023/07/26 06:32:18;;;;;;;8.50;2.30;;;16.40;98.70;;;;;;5073608;28;20045;-69
2023/07/26 06:34:44;;;;;;;8.55;2.08;;;16.50;98.60;;;;;;5073152;28;20025;-68
2023/07/26 06:37:09;;;;;;;3.47;1.67;;;16.50;98.60;;;;;;5073260;28;20035;-68
2023/07/26 06:39:35;;;;;;;2.97;1.45;;;16.50;98.60;;;;;;5073228;28;20102;-68
2023/07/26 06:42:00;;;;;;;5.13;2.00;;;16.50;98.60;;;;;;5073097;28;20032;-68
2023/07/26 06:44:26;;;;;;;4.68;2.20;;;16.60;98.70;;;;;;5072424;28;20025;-68
2023/07/26 06:46:52;;;;;;;4.22;1.60;;;16.60;98.60;;;;;;5072946;28;20043;-68
2023/07/26 06:49:17;;;;;;;4.35;1.80;;;16.60;98.60;;;;;;5073104;28;20039;-68
2023/07/26 06:51:43;;;;;;;4.35;1.95;;;16.60;98.60;;;;;;5072929;28;20494;-68
2023/07/26 06:54:09;;;;;;;4.85;1.52;;;16.70;98.50;;;;;;5073399;28;20019;-68
2023/07/26 06:56:34;;;;;;;6.88;2.05;;;16.70;98.60;;;;;;5073459;28;20040;-68
2023/07/26 06:59:01;;;;;;;6.40;2.42;;;16.90;98.50;;;;;;5073117;28;20041;-68
2023/07/26 07:01:27;;;;;;;3.50;1.80;;;16.80;98.30;;;;;;5072789;28;20033;-68
2023/07/26 07:03:52;;;;;;;5.53;1.60;;;16.80;98.30;;;;;;5072851;28;20111;-68
2023/07/26 07:06:18;;;;;;;4.90;1.30;;;16.90;98.20;;;;;;5073034;28;20055;-68
2023/07/26 07:08:43;;;;;;;8.90;3.05;;;17.10;98.10;;;;;;5072139;28;20355;-67
2023/07/26 07:11:09;;;;;;;5.47;1.67;;;17.10;97.80;;;;;;5072622;28;20067;-68
2023/07/26 07:13:36;;;;;;;3.88;1.40;;;17.10;97.80;;;;;;5072711;28;20397;-68
2023/07/26 07:16:03;;;;;;;4.55;1.83;;;17.20;97.60;;;;;;5072626;28;20421;-68
2023/07/26 07:18:30;;;;;;;1.75;1.05;;;17.10;97.70;;;;;;5072695;28;20033;-68
2023/07/26 07:20:57;;;;;;;4.20;1.60;;;17.20;98.20;;;;;;5072583;28;20481;-67
2023/07/26 07:23:24;;;;;;;5.53;1.80;;;17.10;98.30;;;;;;5072895;28;20024;-68
2023/07/26 07:25:50;;;;;;;4.25;1.52;;;17.00;98.90;;;;;;5072479;28;20371;-69
2023/07/26 07:28:15;;;;;;;4.28;1.27;;;17.00;99.20;;;;;;5072529;28;20032;-69
2023/07/26 07:30:41;;;;;;;4.65;1.88;;;17.10;99.20;;;;;;5071287;28;20051;-68
2023/07/26 07:33:07;;;;;;;4.45;1.80;;;17.20;99.70;;;;;;5072036;28;20048;-69
2023/07/26 07:35:33;;;;;;;4.63;1.27;;;17.10;99.70;;;;;;5072904;28;20028;-69
2023/07/26 07:37:58;;;;;;;6.18;1.90;;;16.90;99.10;;;;;;5070968;28;20024;-68
2023/07/26 07:40:24;;;;;;;3.40;1.50;;;16.80;99.40;;;;;;5071994;28;20385;-68
2023/07/26 07:42:50;;;;;;;3.47;1.48;;;16.90;99.40;;;;;;5071968;28;20455;-68
2023/07/26 07:45:16;;;;;;;8.55;2.13;;;16.80;99.80;;;;;;5071964;28;20068;-68
2023/07/26 07:47:42;;;;;;;5.63;1.42;;;17.10;99.60;;;;;;5072393;28;20119;-68
2023/07/26 07:50:08;;;;;;;5.53;1.58;;;17.10;99.40;;;;;;5071967;28;20407;-68
2023/07/26 07:52:33;;;;;;;2.53;1.75;;;17.30;99.30;;;;;;5071842;28;20043;-68
2023/07/26 07:54:59;;;;;;;7.05;1.90;;;17.40;99.00;;;;;;5071738;28;20033;-67
2023/07/26 07:57:25;;;;;;;5.45;1.15;;;17.40;98.20;;;;;;5070443;28;20040;-68
2023/07/26 07:59:50;;;;;;;3.63;1.90;;;17.50;98.00;;;;;;5071655;28;20454;-68
2023/07/26 08:02:16;;;;;;;3.70;1.35;;;17.50;98.30;;;;;;5072003;28;20024;-68
2023/07/26 08:04:41;;;;;;;6.82;1.70;;;17.80;98.50;;;;;;5071665;28;20662;-69
2023/07/26 08:07:07;;;;;;;3.35;1.35;;;17.90;98.00;;;;;;5071655;28;20103;-68
2023/07/26 08:09:33;;;;;;;3.63;1.23;;;18.10;97.70;;;;;;5071244;28;20077;-69
2023/07/26 08:11:58;;;;;;;2.92;1.35;;;18.10;97.10;;;;;;5071586;28;20020;-70
2023/07/26 08:14:24;;;;;;;4.20;1.27;;;18.40;97.20;;;;;;5072362;28;20013;-69
2023/07/26 08:16:50;;;;;;;4.40;1.25;;;18.50;97.10;;;;;;5071328;28;20102;-70
2023/07/26 08:19:16;;;;;;;2.47;1.17;;;18.30;96.40;;;;;;5071402;28;20033;-68
2023/07/26 08:21:41;;;;;;;1.42;0.80;;;18.50;96.70;;;;;;5071396;28;20528;-68
2023/07/26 08:24:07;;;;;;;2.65;1.20;;;18.10;95.90;;;;;;5070436;28;20473;-69
2023/07/26 08:26:32;;;;;;;5.05;1.35;;;18.10;96.00;;;;;;5071623;28;20020;-69
2023/07/26 08:28:58;;;;;;;4.95;1.10;;;18.30;96.00;;;;;;5071262;28;20083;-69
2023/07/26 08:31:24;;;;;;;4.50;1.38;;;18.50;95.50;;;;;;5071334;28;20044;-68
2023/07/26 08:33:49;;;;;;;3.75;1.17;;;18.90;95.10;;;;;;5070871;28;20041;-69
2023/07/26 08:36:15;;;;;;;6.13;1.17;;;18.80;94.70;;;;;;5069941;28;20024;-68
2023/07/26 08:38:41;;;;;;;3.78;1.30;;;18.90;94.70;;;;;;5071390;28;20039;-70
2023/07/26 08:41:07;;;;;;;3.58;1.15;;;18.90;94.30;;;;;;5071154;28;20037;-68
2023/07/26 08:43:39;;;;;;;1.67;1.20;;;19.30;94.30;;;;;;5069818;28;20474;-68
2023/07/26 08:46:08;;;;;;;4.25;1.42;;;20.10;93.00;;;;;;5070923;28;20028;-67
2023/07/26 08:48:34;;;;;;;1.30;0.90;;;20.90;92.70;;;;;;5070726;28;20021;-69
2023/07/26 08:51:01;;;;;;;2.50;1.08;;;21.50;91.70;;;;;;5069597;28;20035;-68
2023/07/26 08:53:30;;;;;;;3.60;1.42;;;22.20;90.90;;;;;;5069992;28;20115;-69
2023/07/26 08:55:56;;;;;;;4.03;1.15;;;22.30;89.30;;;;;;5070647;28;20028;-68
2023/07/26 08:58:21;;;;;;;4.00;1.27;;;21.70;90.10;;;;;;5070750;28;20074;-68
2023/07/26 09:00:47;;;;;;;4.30;1.25;;;21.20;90.60;;;;;;5070585;28;20125;-68
2023/07/26 09:03:13;;;;;;;1.63;1.30;;;21.10;91.00;;;;;;5070552;28;20040;-69
2023/07/26 09:05:39;;;;;;;4.47;1.60;;;20.90;91.00;;;;;;5070939;28;20021;-68
2023/07/26 09:08:05;;;;;;;2.80;1.35;;;21.30;91.30;;;;;;5070894;28;20021;-68
2023/07/26 09:10:32;;;;;;;3.72;1.80;;;22.00;91.00;;;;;;5070329;28;20107;-68
2023/07/26 09:13:12;;;;;;;3.55;1.80;;;22.50;90.00;;;;;;5069273;28;20060;-68
2023/07/26 09:15:39;;;;;;;3.65;1.15;;;22.40;89.90;;;;;;5070295;28;20136;-68
2023/07/26 09:18:05;;;;;;;1.40;1.10;;;21.70;90.00;;;;;;5070347;28;20040;-68
2023/07/26 09:20:32;;;;;;;1.65;1.17;;;21.00;89.00;;;;;;5070737;28;20250;-69
2023/07/26 09:23:03;;;;;;;1.40;1.00;;;20.80;89.70;;;;;;5070182;28;20029;-67
2023/07/26 09:25:34;;;;;;;4.90;1.30;;;21.00;89.80;;;;;;5053038;28;20036;-69
2023/07/26 09:28:01;;;;;;;1.90;0.80;;;21.70;88.90;;;;;;5070105;28;20103;-68
2023/07/26 09:30:27;;;;;;;2.20;1.17;;;22.60;88.00;;;;;;5070311;28;20124;-68
2023/07/26 09:32:56;;;;;;;3.08;1.30;;;23.60;85.20;;;;;;5069989;28;20045;-68
2023/07/26 09:35:22;;;;;;;4.15;1.02;;;23.60;83.20;;;;;;5070274;28;20122;-67
2023/07/26 09:37:49;;;;;;;6.38;1.08;;;23.20;83.60;;;;;;5069079;28;20454;-67
2023/07/26 09:40:14;;;;;;;2.47;1.38;;;22.80;84.60;;;;;;5070355;28;20037;-68
2023/07/26 09:42:45;;;;;;;5.03;1.92;;;22.40;84.70;;;;;;5070043;28;20675;-68
2023/07/26 09:45:18;;;;;;;2.33;1.20;;;22.10;85.30;;;;;;5070226;28;20067;-67
2023/07/26 09:47:44;;;;;;;2.33;1.20;;;21.80;84.60;;;;;;5070495;28;20109;-69
2023/07/26 09:50:29;;;;;;;3.38;0.98;;;21.80;85.10;;;;;;5068922;28;20072;-67
2023/07/26 09:52:56;;;;;;;2.88;0.95;;;21.60;84.50;;;;;;5069077;28;20085;-69
2023/07/26 09:55:24;;;;;;;1.77;1.15;;;21.30;85.50;;;;;;5069994;28;20115;-67
2023/07/26 09:57:53;;;;;;;5.70;1.58;;;21.40;85.90;;;;;;5068890;28;20032;-68
2023/07/26 10:00:19;;;;;;;3.22;1.10;;;21.30;85.70;;;;;;5069868;28;20047;-69
2023/07/26 10:02:56;;;;;;;91.18;57.55;;;21.10;85.80;;;;;;5070440;28;20112;-68
2023/07/26 10:05:25;;;;;;;3.72;2.00;;;21.10;86.00;;;;;;5068883;28;20509;-68
2023/07/26 10:07:52;;;;;;;2.25;1.15;;;20.60;85.20;;;;;;5068791;28;20113;-68
2023/07/26 10:10:21;;;;;;;3.17;1.63;;;20.50;86.30;;;;;;5069925;28;20043;-68
2023/07/26 10:12:48;;;;;;;5.13;2.08;;;20.20;86.50;;;;;;5070093;28;20041;-69
2023/07/26 10:15:16;;;;;;;4.88;2.05;;;20.40;87.10;;;;;;5069656;28;20064;-67
2023/07/26 10:17:47;;;;;;;2.22;1.50;;;20.40;87.30;;;;;;5070156;28;20025;-68
2023/07/26 10:20:14;;;;;;;3.13;1.33;;;20.20;87.70;;;;;;5068802;28;20446;-68
2023/07/26 10:22:41;;;;;;;9.07;1.60;;;20.50;88.60;;;;;;5069803;28;20024;-67
2023/07/26 10:25:08;;;;;;;3.20;1.30;;;20.80;88.10;;;;;;5069806;28;20467;-68
2023/07/26 10:27:34;;;;;;;1.77;0.98;;;21.10;85.30;;;;;;5069619;28;20455;-68
2023/07/26 10:30:00;;;;;;;2.25;1.00;;;21.10;83.50;;;;;;5068687;28;20128;-67
2023/07/26 10:32:26;;;;;;;3.25;0.90;;;21.40;82.60;;;;;;5069891;28;20147;-67
2023/07/26 10:34:55;;;;;;;3.20;1.40;;;21.20;81.90;;;;;;5069328;28;20025;-69
2023/07/26 10:37:22;;;;;;;3.35;1.08;;;21.20;82.10;;;;;;5068289;28;20040;-68
2023/07/26 10:39:49;;;;;;;2.43;1.43;;;21.10;84.00;;;;;;5068367;28;20085;-67
2023/07/26 10:42:27;;;;;;;3.10;1.58;;;21.10;88.00;;;;;;5069457;28;20029;-68
2023/07/26 10:44:54;;;;;;;3.33;1.48;;;20.60;89.50;;;;;;5068522;28;20032;-68
2023/07/26 10:47:20;;;;;;;1.88;1.13;;;20.50;90.40;;;;;;5071605;28;20028;-68
2023/07/26 10:49:47;;;;;;;4.82;1.55;;;20.20;89.70;;;;;;5073138;28;20040;-68
2023/07/26 10:52:13;;;;;;;2.83;1.70;;;20.00;90.40;;;;;;5071999;28;20041;-68
2023/07/26 10:54:40;;;;;;;2.33;1.30;;;19.70;90.40;;;;;;5055169;28;20028;-68
2023/07/26 10:57:27;;;;;;;5.15;1.30;;;19.40;90.30;;;;;;5072871;28;20100;-68
2023/07/26 10:59:59;;;;;;;4.97;1.38;;;19.60;90.70;;;;;;5072915;28;20074;-69
2023/07/26 11:02:42;;;;;;;2.53;1.10;;;19.50;91.20;;;;;;5073464;28;20020;-69
2023/07/26 11:05:16;;;;;;;7.13;1.50;;;19.50;91.70;;;;;;5072712;28;20029;-69
2023/07/26 11:07:52;;;;;;;3.67;1.50;;;19.70;92.50;;;;;;5072861;28;20365;-68
2023/07/26 11:10:19;;;;;;;3.58;1.40;;;19.80;92.50;;;;;;5072780;28;20492;-68
2023/07/26 11:12:47;;;;;;;2.25;1.30;;;19.50;91.70;;;;;;5072748;28;20492;-68
2023/07/26 11:15:13;;;;;;;1.55;1.10;;;19.40;90.90;;;;;;5072595;28;20459;-69
2023/07/26 11:17:42;;;;;;;4.13;1.55;;;19.50;90.50;;;;;;5073074;28;20090;-68
2023/07/26 11:20:10;;;;;;;5.03;1.20;;;19.60;90.70;;;;;;5072610;28;20040;-69
2023/07/26 11:22:36;;;;;;;3.75;1.17;;;19.80;90.80;;;;;;5072501;28;20035;-68
2023/07/26 11:25:05;;;;;;;3.30;1.20;;;19.90;90.60;;;;;;5072549;28;20036;-68
2023/07/26 11:27:31;;;;;;;4.13;1.23;;;20.00;90.20;;;;;;5072381;28;20032;-68
2023/07/26 11:30:01;;;;;;;2.28;0.90;;;20.00;88.00;;;;;;5072175;28;20458;-69
2023/07/26 11:32:28;;;;;;;1.58;1.10;;;19.90;88.70;;;;;;5072641;28;20044;-68
2023/07/26 11:34:58;;;;;;;2.67;1.60;;;19.70;90.30;;;;;;5071057;28;20044;-69
2023/07/26 11:37:24;;;;;;;4.70;1.83;;;19.40;91.80;;;;;;5070822;28;20120;-68
2023/07/26 11:40:12;;;;;;;2.42;1.48;;;19.40;92.50;;;;;;5071842;28;20029;-69
2023/07/26 11:42:38;;;;;;;4.47;1.88;;;19.20;92.70;;;;;;5071638;28;20043;-68
2023/07/26 11:45:05;;;;;;;3.83;1.90;;;19.30;93.30;;;;;;5072019;28;20017;-68
2023/07/26 11:47:35;;;;;;;3.90;1.75;;;19.40;92.70;;;;;;5072812;28;20021;-68
2023/07/26 11:50:02;;;;;;;2.38;1.35;;;19.30;92.50;;;;;;5072405;28;20469;-68
2023/07/26 11:52:28;;;;;;;3.75;1.70;;;19.40;92.20;;;;;;5070918;28;20090;-69
2023/07/26 11:55:03;;;;;;;2.33;1.30;;;19.50;92.00;;;;;;5070795;28;20064;-68
2023/07/26 11:57:29;;;;;;;1.88;1.17;;;19.70;91.60;;;;;;5070505;28;20514;-69
2023/07/26 11:59:58;;;;;;;8.07;4.82;;;19.80;91.30;;;;;;5071472;28;20106;-68
2023/07/26 12:02:25;;;;;;;4.95;1.50;;;20.10;90.90;;;;;;5071094;28;20013;-67
2023/07/26 12:05:25;;;;;;;3.42;1.48;;;20.00;90.70;;;;;;5071590;28;20094;-67
2023/07/26 12:07:58;;;;;;;2.50;1.40;;;20.10;90.50;;;;;;5070398;28;20057;-68
2023/07/26 12:10:29;;;;;;;3.45;1.60;;;20.40;90.50;;;;;;5070247;28;20045;-67
2023/07/26 12:12:56;;;;;;;3.83;1.60;;;20.70;90.40;;;;;;5071243;28;20056;-68
2023/07/26 12:15:22;;;;;;;3.58;1.23;;;20.70;90.00;;;;;;5071576;28;20514;-68
2023/07/26 12:17:55;;;;;;;2.83;1.60;;;20.70;90.00;;;;;;5071719;28;20103;-67
2023/07/26 12:20:23;;;;;;;2.90;1.90;;;20.70;89.30;;;;;;5071508;28;20036;-68
2023/07/26 12:22:52;;;;;;;3.10;1.27;;;20.60;89.00;;;;;;5071460;28;20029;-68
2023/07/26 12:25:18;;;;;;;4.55;1.40;;;20.70;89.50;;;;;;5071329;28;20040;-67
2023/07/26 12:27:46;;;;;;;2.25;1.50;;;20.90;88.40;;;;;;5070213;28;20493;-66
2023/07/26 12:30:12;;;;;;;1.95;1.15;;;21.00;87.20;;;;;;5071259;28;20047;-67
2023/07/26 12:32:38;;;;;;;3.13;1.60;;;20.90;87.10;;;;;;5071358;28;20060;-67
2023/07/26 12:35:24;;;;;;;2.17;1.60;;;21.00;87.70;;;;;;5070853;28;20081;-67
2023/07/26 12:37:50;;;;;;;3.55;1.55;;;21.20;86.20;;;;;;5070941;28;20044;-67
2023/07/26 12:40:20;;;;;;;2.35;1.55;;;21.10;86.10;;;;;;5070900;28;20024;-68
2023/07/26 12:42:45;;;;;;;2.30;1.38;;;21.10;86.20;;;;;;5070887;28;20033;-66
2023/07/26 12:45:13;;;;;;;4.07;1.70;;;21.10;84.20;;;;;;5071030;28;20040;-68